createdAt,value
2022-08-26T00:01:54.238Z,64.23
2022-08-26T00:04:23.764Z,63.72
2022-08-26T00:06:51.967Z,63.35
2022-08-26T00:09:19.353Z,63.06
2022-08-26T00:11:47.196Z,63.84
2022-08-26T00:14:15.842Z,63.66
2022-08-26T00:16:48.026Z,63.71
2022-08-26T00:19:18.143Z,64.42
2022-08-26T00:21:46.621Z,64.24
2022-08-26T00:24:18.828Z,64.27
2022-08-26T00:26:46.610Z,63.87
2022-08-26T00:29:14.874Z,65.09
2022-08-26T00:31:42.728Z,64.45
2022-08-26T00:34:13.024Z,65.69
2022-08-26T00:36:41.378Z,65.97
2022-08-26T00:39:09.433Z,65.15
2022-08-26T00:41:39.768Z,64.84
2022-08-26T00:44:08.427Z,65.34
2022-08-26T00:46:46.965Z,65.91
2022-08-26T00:49:25.895Z,66.43
2022-08-26T00:51:56.935Z,65.81
2022-08-26T00:54:26.980Z,65.46
2022-08-26T00:56:59.831Z,65.18
2022-08-26T00:59:29.284Z,65.54
2022-08-26T01:02:02.728Z,65.65
2022-08-26T01:04:32.132Z,66.01
2022-08-26T01:07:00.128Z,65.66
2022-08-26T01:09:28.025Z,65.68
2022-08-26T01:11:58.102Z,65.74
2022-08-26T01:14:27.302Z,65.90
2022-08-26T01:16:54.989Z,67.00
2022-08-26T01:19:27.378Z,66.94
2022-08-26T01:21:59.477Z,66.55
2022-08-26T01:24:27.949Z,65.89
2022-08-26T01:27:02.585Z,67.05
2022-08-26T01:29:31.689Z,67.39
2022-08-26T01:31:59.726Z,67.18
2022-08-26T01:34:30.444Z,66.74
2022-08-26T01:37:13.700Z,67.28
2022-08-26T01:39:46.110Z,66.32
2022-08-26T01:42:15.618Z,66.82
2022-08-26T01:44:46.602Z,67.36
2022-08-26T01:47:17.078Z,66.85
2022-08-26T01:49:46.228Z,67.21
2022-08-26T01:52:18.016Z,66.22
2022-08-26T01:54:46.387Z,67.24
2022-08-26T01:57:19.029Z,66.81
2022-08-26T01:59:48.234Z,67.74
2022-08-26T02:02:15.742Z,68.30
2022-08-26T02:04:53.222Z,67.85
2022-08-26T02:07:21.748Z,68.12
2022-08-26T02:09:51.814Z,68.02
2022-08-26T02:12:19.884Z,68.31
2022-08-26T02:14:54.382Z,68.56
2022-08-26T02:17:26.598Z,68.34
2022-08-26T02:19:54.004Z,67.64
2022-08-26T02:22:24.606Z,66.59
2022-08-26T02:25:05.392Z,68.23
2022-08-26T02:27:35.093Z,68.03
2022-08-26T02:30:19.847Z,68.03
2022-08-26T02:32:49.497Z,69.00
2022-08-26T02:35:20.362Z,67.51
2022-08-26T02:37:49.376Z,68.29
2022-08-26T02:40:21.514Z,67.85
2022-08-26T02:42:49.666Z,69.21
2022-08-26T02:45:23.371Z,69.21
2022-08-26T02:47:52.357Z,69.68
2022-08-26T02:50:20.456Z,69.87
2022-08-26T02:52:48.585Z,70.02
2022-08-26T02:55:16.383Z,69.88
2022-08-26T02:57:43.934Z,69.01
2022-08-26T03:00:14.572Z,69.25
2022-08-26T03:02:42.338Z,68.15
2022-08-26T03:05:11.404Z,68.49
2022-08-26T03:07:38.945Z,68.89
2022-08-26T03:10:08.669Z,68.49
2022-08-26T03:12:37.061Z,68.27
2022-08-26T03:15:17.396Z,68.02
2022-08-26T03:17:47.384Z,68.25
2022-08-26T03:20:17.313Z,67.94
2022-08-26T03:22:45.515Z,68.33
2022-08-26T03:25:15.824Z,68.18
2022-08-26T03:27:43.759Z,69.70
2022-08-26T03:30:31.367Z,69.37
2022-08-26T03:32:59.303Z,70.24
2022-08-26T03:35:26.969Z,71.13
2022-08-26T03:37:54.925Z,69.31
2022-08-26T03:40:23.234Z,68.68
2022-08-26T03:42:51.101Z,68.09
2022-08-26T03:45:19.586Z,69.83
2022-08-26T03:47:47.988Z,68.95
2022-08-26T03:50:22.527Z,70.41
2022-08-26T03:52:52.263Z,70.11
2022-08-26T03:55:20.921Z,70.65
2022-08-26T03:57:52.561Z,71.88
2022-08-26T04:00:20.315Z,71.30
2022-08-26T04:02:51.206Z,71.29
2022-08-26T04:05:21.773Z,70.20
2022-08-26T04:07:51.304Z,71.47
2022-08-26T04:10:26.444Z,70.27
2022-08-26T04:12:59.397Z,71.23
2022-08-26T04:15:27.303Z,70.65
2022-08-26T04:17:56.076Z,71.20
2022-08-26T04:20:26.446Z,71.07
2022-08-26T04:22:54.103Z,71.50
2022-08-26T04:25:22.524Z,71.72
2022-08-26T04:27:52.214Z,72.97
2022-08-26T04:30:20.131Z,71.97
2022-08-26T04:32:49.242Z,70.23
2022-08-26T04:35:16.946Z,71.53
2022-08-26T04:37:44.331Z,71.48
2022-08-26T04:40:12.432Z,71.12
2022-08-26T04:42:40.142Z,71.00
2022-08-26T04:45:10.172Z,69.52
2022-08-26T04:47:38.083Z,70.90
2022-08-26T04:50:07.502Z,69.25
2022-08-26T04:52:36.584Z,68.90
2022-08-26T04:55:06.586Z,68.20
2022-08-26T04:57:36.418Z,68.11
2022-08-26T05:00:05.880Z,67.16
2022-08-26T05:02:33.266Z,68.11
2022-08-26T05:05:00.991Z,66.22
2022-08-26T05:07:28.614Z,66.09
2022-08-26T05:09:56.070Z,65.42
2022-08-26T05:12:23.750Z,63.90
2022-08-26T05:14:51.197Z,65.44
2022-08-26T05:17:19.305Z,62.91
2022-08-26T05:19:47.370Z,62.53
2022-08-26T05:22:14.773Z,64.58
2022-08-26T05:24:43.259Z,62.99
2022-08-26T05:27:11.726Z,62.89
2022-08-26T05:29:40.528Z,62.73
2022-08-26T05:32:07.984Z,62.36
2022-08-26T05:34:37.525Z,62.82
2022-08-26T05:37:06.048Z,62.48
2022-08-26T05:39:33.596Z,61.23
2022-08-26T05:42:02.339Z,59.85
2022-08-26T05:44:29.989Z,60.83
2022-08-26T05:47:17.602Z,59.43
2022-08-26T05:49:51.380Z,58.58
2022-08-26T05:52:19.807Z,59.18
2022-08-26T05:54:47.762Z,58.14
2022-08-26T05:57:15.729Z,56.64
2022-08-26T05:59:43.440Z,56.63
2022-08-26T06:02:10.828Z,56.72
2022-08-26T06:04:39.901Z,57.68
2022-08-26T06:07:07.413Z,55.49
2022-08-26T06:09:39.300Z,56.25
2022-08-26T06:12:07.137Z,56.81
2022-08-26T06:14:35.954Z,55.07
2022-08-26T06:17:03.372Z,54.72
2022-08-26T06:19:32.754Z,54.78
2022-08-26T06:22:23.462Z,56.02
2022-08-26T06:25:10.465Z,54.29
2022-08-26T06:27:38.247Z,52.79
2022-08-26T06:30:06.817Z,48.12
2022-08-26T06:32:34.534Z,50.09
2022-08-26T06:35:01.951Z,44.54
2022-08-26T06:37:29.601Z,46.18
2022-08-26T06:39:57.679Z,46.35
2022-08-26T06:42:25.202Z,47.97
2022-08-26T06:44:53.043Z,47.32
2022-08-26T06:47:20.542Z,45.37
2022-08-26T06:49:48.233Z,45.68
2022-08-26T06:52:22.935Z,46.02
2022-08-26T06:54:51.921Z,47.06
2022-08-26T06:57:20.710Z,46.14
2022-08-26T06:59:48.803Z,46.47
2022-08-26T07:02:18.760Z,46.03
2022-08-26T07:04:47.879Z,44.80
2022-08-26T07:07:16.325Z,43.05
2022-08-26T07:09:43.740Z,41.95
2022-08-26T07:12:11.405Z,40.68
2022-08-26T07:14:39.429Z,40.43
2022-08-26T07:17:08.509Z,40.16
2022-08-26T07:19:38.801Z,41.22
2022-08-26T07:22:07.469Z,42.56
2022-08-26T07:24:38.453Z,42.65
2022-08-26T07:27:09.023Z,41.63
2022-08-26T07:29:38.968Z,40.78
2022-08-26T07:32:07.709Z,42.11
2022-08-26T07:34:37.705Z,42.37
2022-08-26T07:37:05.932Z,43.38
2022-08-26T07:39:37.365Z,43.69
2022-08-26T07:42:07.866Z,42.22
2022-08-26T07:44:37.259Z,42.62
2022-08-26T07:47:24.111Z,42.83
2022-08-26T07:49:55.821Z,43.07
2022-08-26T07:52:26.716Z,42.42
2022-08-26T07:54:59.607Z,41.46
2022-08-26T07:57:29.309Z,42.29
2022-08-26T07:59:56.833Z,42.88
2022-08-26T08:02:25.338Z,41.77
2022-08-26T08:04:53.346Z,41.86
2022-08-26T08:07:38.771Z,41.37
2022-08-26T08:10:11.567Z,41.22
2022-08-26T08:12:40.409Z,41.28
2022-08-26T08:15:10.160Z,40.59
2022-08-26T08:17:37.779Z,42.07
2022-08-26T08:20:07.148Z,40.93
2022-08-26T08:22:35.487Z,40.68
2022-08-26T08:25:06.343Z,39.95
2022-08-26T08:27:36.942Z,40.67
2022-08-26T08:30:05.918Z,40.14
2022-08-26T08:32:33.956Z,40.25
2022-08-26T08:35:02.688Z,41.33
2022-08-26T08:37:38.693Z,41.19
2022-08-26T08:40:08.485Z,40.76
2022-08-26T08:42:48.297Z,40.74
2022-08-26T08:45:30.472Z,40.46
2022-08-26T08:48:02.131Z,40.96
2022-08-26T08:50:36.193Z,40.55
2022-08-26T08:53:20.430Z,40.76
2022-08-26T08:56:06.430Z,40.74
2022-08-26T08:58:57.326Z,41.45
2022-08-26T09:01:30.552Z,40.82
2022-08-26T09:04:12.515Z,39.57
2022-08-26T09:06:46.784Z,38.72
2022-08-26T09:09:21.779Z,38.64
2022-08-26T09:11:49.701Z,39.85
2022-08-26T09:14:17.725Z,39.11
2022-08-26T09:16:56.447Z,37.97
2022-08-26T09:19:41.353Z,38.60
2022-08-26T09:22:09.538Z,39.21
2022-08-26T09:24:42.107Z,37.99
2022-08-26T09:27:37.774Z,39.80
2022-08-26T09:30:06.435Z,40.12
2022-08-26T09:32:35.233Z,38.78
2022-08-26T09:35:10.937Z,37.49
2022-08-26T09:40:20.752Z,38.72
2022-08-26T09:43:07.850Z,38.51
2022-08-26T09:45:36.216Z,36.45
2022-08-26T09:48:03.993Z,36.80
2022-08-26T09:50:37.967Z,36.80
2022-08-26T09:53:09.718Z,36.75
2022-08-26T09:55:45.137Z,38.18
2022-08-26T09:58:15.074Z,37.29
2022-08-26T10:00:55.445Z,35.39
2022-08-26T10:03:27.235Z,36.15
2022-08-26T10:05:58.716Z,36.22
2022-08-26T10:08:36.372Z,35.67
2022-08-26T10:11:25.023Z,35.46
2022-08-26T10:13:59.800Z,34.73
2022-08-26T10:16:33.293Z,34.69
2022-08-26T10:19:12.949Z,35.41
2022-08-26T10:22:06.631Z,34.55
2022-08-26T10:24:51.879Z,34.34
2022-08-26T10:27:51.181Z,33.03
2022-08-26T10:30:23.592Z,33.95
2022-08-26T10:32:52.386Z,35.78
2022-08-26T10:35:20.020Z,33.95
2022-08-26T10:37:54.171Z,33.45
2022-08-26T10:40:42.511Z,32.18
2022-08-26T10:43:23.563Z,34.13
2022-08-26T10:45:55.710Z,31.00
2022-08-26T10:48:35.799Z,32.26
2022-08-26T10:51:04.394Z,32.66
2022-08-26T10:53:44.317Z,32.18
2022-08-26T10:56:46.710Z,31.80
2022-08-26T10:59:45.996Z,29.23
2022-08-26T11:02:33.958Z,30.42
2022-08-26T11:05:07.033Z,29.97
2022-08-26T11:08:27.926Z,28.20
2022-08-26T11:10:59.097Z,28.96
2022-08-26T11:14:08.136Z,29.26
2022-08-26T11:16:43.484Z,29.70
2022-08-26T11:19:50.540Z,30.08
2022-08-26T11:22:29.371Z,28.48
2022-08-26T11:24:56.649Z,27.67
2022-08-26T11:27:26.876Z,27.88
2022-08-26T11:30:02.646Z,27.77
2022-08-26T11:32:39.404Z,27.02
2022-08-26T11:35:12.884Z,30.14
2022-08-26T11:37:41.442Z,28.35
2022-08-26T11:40:13.330Z,27.65
2022-08-26T11:42:49.162Z,27.11
2022-08-26T11:45:26.439Z,28.20
2022-08-26T11:47:54.834Z,27.37
2022-08-26T11:50:28.264Z,28.04
2022-08-26T11:52:57.168Z,27.56
2022-08-26T11:55:24.633Z,27.14
2022-08-26T11:57:55.368Z,26.22
2022-08-26T12:00:36.047Z,26.11
2022-08-26T12:03:07.318Z,26.55
2022-08-26T12:05:38.468Z,26.20
2022-08-26T12:08:09.708Z,27.26
2022-08-26T12:10:38.057Z,27.58
2022-08-26T12:13:07.553Z,26.38
2022-08-26T12:15:35.785Z,27.62
2022-08-26T12:18:29.035Z,27.52
2022-08-26T12:21:22.368Z,29.93
2022-08-26T12:23:52.721Z,30.78
2022-08-26T12:26:29.602Z,27.72
2022-08-26T12:29:10.026Z,29.14
2022-08-26T12:31:48.228Z,27.65
2022-08-26T12:34:18.166Z,28.14
2022-08-26T12:39:29.411Z,27.18
2022-08-26T12:41:58.865Z,27.22
2022-08-26T12:44:41.758Z,26.67
2022-08-26T12:47:42.888Z,26.95
2022-08-26T12:50:20.378Z,26.41
2022-08-26T12:53:09.551Z,27.45
2022-08-26T12:55:43.765Z,27.60
2022-08-26T12:58:15.616Z,26.32
2022-08-26T13:00:48.456Z,26.01
2022-08-26T13:03:34.322Z,25.57
2022-08-26T13:06:23.057Z,27.12
2022-08-26T13:08:59.689Z,26.42
2022-08-26T13:11:41.239Z,26.97
2022-08-26T13:14:21.031Z,26.35
2022-08-26T13:16:53.939Z,26.60
2022-08-26T13:19:23.876Z,27.63
2022-08-26T13:21:59.174Z,26.81
2022-08-26T13:24:31.692Z,27.91
2022-08-26T13:27:00.084Z,26.46
2022-08-26T13:29:27.504Z,25.88
2022-08-26T13:31:56.543Z,26.53
2022-08-26T13:34:26.184Z,25.45
2022-08-26T13:36:55.258Z,25.45
2022-08-26T13:39:23.228Z,26.36
2022-08-26T13:41:51.527Z,27.21
2022-08-26T13:44:19.178Z,26.52
2022-08-26T13:46:46.574Z,26.52
2022-08-26T13:49:14.282Z,26.97
2022-08-26T13:51:42.075Z,25.99
2022-08-26T13:54:09.515Z,25.42
2022-08-26T13:56:37.552Z,25.50
2022-08-26T13:59:06.395Z,25.39
2022-08-26T14:01:34.706Z,26.92
2022-08-26T14:04:03.181Z,25.96
2022-08-26T14:06:31.225Z,25.83
2022-08-26T14:08:58.688Z,26.85
2022-08-26T14:11:26.990Z,25.81
2022-08-26T14:13:54.384Z,25.98
2022-08-26T14:16:26.494Z,26.63
2022-08-26T14:18:54.429Z,27.11
2022-08-26T14:21:22.055Z,27.99
2022-08-26T14:23:49.486Z,26.90
2022-08-26T14:26:28.168Z,27.14
2022-08-26T14:29:00.362Z,26.54
2022-08-26T14:31:29.429Z,27.12
2022-08-26T14:34:07.784Z,28.15
2022-08-26T14:36:35.626Z,25.81
2022-08-26T14:39:07.143Z,24.85
2022-08-26T14:41:37.239Z,26.99
2022-08-26T14:44:07.148Z,24.27
2022-08-26T14:46:41.660Z,25.32
2022-08-26T14:49:10.772Z,26.50
2022-08-26T14:51:39.616Z,26.44
2022-08-26T14:54:14.214Z,27.48
2022-08-26T14:56:54.129Z,25.96
2022-08-26T14:59:25.516Z,25.49
2022-08-26T15:01:54.429Z,24.02
2022-08-26T15:04:22.705Z,25.04
2022-08-26T15:06:51.427Z,26.79
2022-08-26T15:09:19.158Z,25.77
2022-08-26T15:11:47.797Z,25.02
2022-08-26T15:14:19.552Z,27.66
2022-08-26T15:16:49.546Z,25.46
2022-08-26T15:19:18.203Z,28.72
2022-08-26T15:21:47.305Z,29.32
2022-08-26T15:24:18.881Z,27.96
2022-08-26T15:26:46.804Z,25.69
2022-08-26T15:29:14.430Z,26.14
2022-08-26T15:31:42.514Z,28.30
2022-08-26T15:34:15.984Z,25.45
2022-08-26T15:36:46.400Z,26.16
2022-08-26T15:39:15.728Z,25.88
2022-08-26T15:41:43.141Z,25.77
2022-08-26T15:44:11.438Z,26.33
2022-08-26T15:46:39.289Z,26.88
2022-08-26T15:49:07.239Z,26.47
2022-08-26T15:51:45.255Z,28.09
2022-08-26T15:54:15.842Z,27.33
2022-08-26T15:56:44.005Z,27.28
2022-08-26T15:59:12.096Z,27.21
2022-08-26T16:01:39.997Z,26.88
2022-08-26T16:04:07.718Z,26.66
2022-08-26T16:06:36.764Z,28.91
2022-08-26T16:09:05.450Z,26.65
2022-08-26T16:11:33.924Z,26.51
2022-08-26T16:14:01.739Z,26.60
2022-08-26T16:16:29.168Z,27.92
2022-08-26T16:18:56.881Z,27.33
2022-08-26T16:21:27.900Z,28.24
2022-08-26T16:23:56.191Z,29.71
2022-08-26T16:26:27.250Z,29.84
2022-08-26T16:28:55.014Z,30.62
2022-08-26T16:31:22.611Z,31.17
2022-08-26T16:33:51.358Z,31.30
2022-08-26T16:36:19.861Z,32.18
2022-08-26T16:38:55.309Z,32.37
2022-08-26T16:41:24.492Z,34.36
2022-08-26T16:43:51.955Z,36.49
2022-08-26T16:46:22.213Z,35.66
2022-08-26T16:48:50.015Z,34.23
2022-08-26T16:51:19.146Z,34.11
2022-08-26T16:53:47.005Z,35.21
2022-08-26T16:56:16.353Z,35.52
2022-08-26T16:58:44.093Z,35.12
2022-08-26T17:01:11.675Z,35.97
2022-08-26T17:03:39.445Z,35.52
2022-08-26T17:06:07.127Z,35.72
2022-08-26T17:08:34.595Z,36.01
2022-08-26T17:11:02.284Z,36.62
2022-08-26T17:13:35.286Z,37.76
2022-08-26T17:16:05.845Z,37.99
2022-08-26T17:18:34.725Z,40.21
2022-08-26T17:21:04.375Z,38.35
2022-08-26T17:23:32.456Z,39.53
2022-08-26T17:26:01.555Z,38.67
2022-08-26T17:28:29.672Z,37.94
2022-08-26T17:30:57.948Z,39.11
2022-08-26T17:33:26.646Z,39.53
2022-08-26T17:42:07.502Z,39.58
2022-08-26T17:44:35.283Z,40.14
2022-08-26T17:47:02.774Z,40.44
2022-08-26T17:49:30.261Z,41.21
2022-08-26T17:52:01.509Z,40.60
2022-08-26T17:54:29.363Z,42.37
2022-08-26T17:56:58.961Z,42.23
2022-08-26T17:59:30.551Z,41.86
2022-08-26T18:01:58.987Z,42.71
2022-08-26T18:04:27.353Z,43.11
2022-08-26T18:06:54.813Z,43.68
2022-08-26T18:09:22.161Z,43.70
2022-08-26T18:11:49.864Z,43.88
2022-08-26T18:14:17.238Z,44.12
2022-08-26T18:16:44.620Z,44.76
2022-08-26T18:19:12.870Z,44.33
2022-08-26T18:21:40.531Z,44.68
2022-08-26T18:24:12.155Z,45.42
2022-08-26T18:26:48.041Z,45.56
2022-08-26T18:29:16.806Z,45.17
2022-08-26T18:31:44.497Z,45.49
2022-08-26T18:34:16.112Z,46.00
2022-08-26T18:36:44.067Z,45.86
2022-08-26T18:39:12.778Z,47.12
2022-08-26T18:41:44.461Z,46.86
2022-08-26T18:44:14.036Z,47.35
2022-08-26T18:46:42.437Z,47.90
2022-08-26T18:49:11.106Z,48.60
2022-08-26T18:51:39.318Z,48.40
2022-08-26T18:54:07.939Z,47.87
2022-08-26T18:56:37.082Z,48.76
2022-08-26T18:59:07.046Z,49.34
2022-08-26T19:01:36.342Z,49.96
2022-08-26T19:04:05.720Z,50.26
2022-08-26T19:06:35.796Z,49.63
2022-08-26T19:09:06.397Z,50.27
2022-08-26T19:11:41.314Z,49.81
2022-08-26T19:14:13.842Z,49.79
2022-08-26T19:16:44.438Z,49.54
2022-08-26T19:19:13.284Z,50.05
2022-08-26T19:21:41.152Z,49.83
2022-08-26T19:24:15.589Z,50.12
2022-08-26T19:26:45.612Z,50.54
2022-08-26T19:29:13.971Z,51.51
2022-08-26T19:31:44.066Z,51.31
2022-08-26T19:34:14.049Z,51.71
2022-08-26T19:36:46.782Z,50.88
2022-08-26T19:39:14.830Z,51.40
2022-08-26T19:41:42.959Z,50.25
2022-08-26T19:44:14.802Z,50.33
2022-08-26T19:46:42.825Z,50.88
2022-08-26T19:49:10.589Z,51.41
2022-08-26T19:51:38.349Z,51.79
2022-08-26T19:54:06.519Z,51.41
2022-08-26T19:56:35.210Z,50.78
2022-08-26T19:59:02.891Z,51.71
2022-08-26T20:01:31.073Z,52.20
2022-08-26T20:03:59.175Z,52.23
2022-08-26T20:06:26.963Z,51.36
2022-08-26T20:08:56.301Z,51.24
2022-08-26T20:11:24.911Z,51.75
2022-08-26T20:13:52.837Z,52.90
2022-08-26T20:16:20.574Z,53.09
2022-08-26T20:19:06.785Z,52.13
2022-08-26T20:21:36.049Z,52.20
2022-08-26T20:24:14.135Z,52.05
2022-08-26T20:26:43.564Z,51.48
2022-08-26T20:29:15.136Z,52.04
2022-08-26T20:31:44.207Z,51.67
2022-08-26T20:34:13.810Z,51.89
2022-08-26T20:36:41.810Z,50.71
2022-08-26T20:39:10.843Z,51.05
2022-08-26T20:41:38.881Z,52.07
2022-08-26T20:44:06.851Z,53.06
2022-08-26T20:46:37.197Z,51.68
2022-08-26T20:49:05.966Z,53.07
2022-08-26T20:51:37.043Z,52.79
2022-08-26T20:54:06.581Z,52.76
2022-08-26T20:56:34.111Z,53.96
2022-08-26T20:59:01.867Z,54.10
2022-08-26T21:01:34.643Z,54.35
2022-08-26T21:04:06.349Z,53.99
2022-08-26T21:06:34.509Z,54.33
2022-08-26T21:09:05.339Z,54.13
2022-08-26T21:11:33.929Z,54.41
2022-08-26T21:14:06.666Z,54.71
2022-08-26T21:16:38.707Z,55.17
2022-08-26T21:19:08.175Z,55.55
2022-08-26T21:21:35.721Z,54.86
2022-08-26T21:24:03.800Z,54.30
2022-08-26T21:26:31.691Z,54.95
2022-08-26T21:29:00.874Z,54.87
2022-08-26T21:31:29.695Z,55.02
2022-08-26T21:33:57.697Z,56.78
2022-08-26T21:36:25.201Z,56.82
2022-08-26T21:38:52.617Z,56.64
2022-08-26T21:41:22.205Z,57.36
2022-08-26T21:43:51.686Z,57.69
2022-08-26T21:46:22.061Z,57.31
2022-08-26T21:48:55.989Z,56.83
2022-08-26T21:51:26.034Z,56.18
2022-08-26T21:53:55.353Z,55.07
2022-08-26T21:56:24.712Z,56.07
2022-08-26T21:58:54.989Z,57.40
2022-08-26T22:01:24.949Z,56.34
2022-08-26T22:03:53.104Z,56.98
2022-08-26T22:06:25.454Z,56.81
2022-08-26T22:08:54.178Z,56.92
2022-08-26T22:11:21.635Z,58.45
2022-08-26T22:13:49.501Z,58.50
2022-08-26T22:16:17.841Z,58.15
2022-08-26T22:18:45.997Z,58.34
2022-08-26T22:21:19.803Z,57.91
2022-08-26T22:23:47.925Z,58.04
2022-08-26T22:26:21.836Z,58.02
2022-08-26T22:28:58.753Z,57.40
2022-08-26T22:31:38.356Z,57.66
2022-08-26T22:34:08.504Z,58.77
2022-08-26T22:36:43.657Z,58.20
2022-08-26T22:39:17.536Z,59.37
2022-08-26T22:41:46.082Z,59.58
2022-08-26T22:44:13.998Z,59.21
2022-08-26T22:46:41.789Z,58.54
2022-08-26T22:49:11.370Z,58.37
2022-08-26T22:51:39.067Z,57.56
2022-08-26T22:54:06.781Z,58.22
2022-08-26T22:56:35.003Z,57.35
2022-08-26T22:59:04.175Z,57.76
2022-08-26T23:01:35.615Z,58.38
2022-08-26T23:04:04.741Z,58.89
2022-08-26T23:06:34.229Z,59.12
2022-08-26T23:09:01.670Z,59.26
2022-08-26T23:11:29.398Z,59.82
2022-08-26T23:13:56.793Z,60.25
2022-08-26T23:16:24.245Z,60.66
2022-08-26T23:18:52.272Z,60.73
2022-08-26T23:21:19.686Z,60.71
2022-08-26T23:23:47.072Z,60.20
2022-08-26T23:26:17.662Z,59.01
2022-08-26T23:28:45.355Z,58.92
2022-08-26T23:31:14.359Z,59.47
2022-08-26T23:34:01.065Z,60.17
2022-08-26T23:36:30.378Z,60.59
2022-08-26T23:38:58.493Z,59.90
2022-08-26T23:41:26.058Z,59.92
2022-08-26T23:43:53.439Z,59.41
2022-08-26T23:46:21.134Z,59.09
2022-08-26T23:48:48.568Z,58.91
2022-08-26T23:51:34.977Z,58.12
2022-08-26T23:54:02.629Z,58.61
2022-08-26T23:56:30.054Z,58.52
2022-08-26T23:58:57.466Z,59.02
